KOAK/OAK METAR and TAF weather

Enter ICAO airport designator
Station Type Date Time Source
KOAK METAR 2020/01/29 12:53 UTC NOAA

KOAK 291253Z 12004KT 10SM FEW020 08/07 A3028 RMK AO2 SLP253 T00830067


Station Type Date Time Source
KOAK Decoded METAR 2020/01/29 12:53 UTC NOAA

METRO OAKLAND INTERNATIONAL AIRPORT , CA, United States (KOAK) 37-43N 122-14W 26M
Jan 29, 2020 - 07:53 AM EST / 2020.01.29 1253 UTC
Wind: from the ESE (120 degrees) at 5 MPH (4 KT):0
Visibility: 10 mile(s):0
Sky conditions: mostly clear
Temperature: 46.9 F (8.3 C)
Dew Point: 44.1 F (6.7 C)
Relative Humidity: 89%
Pressure (altimeter): 30.28 in. Hg (1025 hPa)
ob: KOAK 291253Z 12004KT 10SM FEW020 08/07 A3028 RMK AO2 SLP253 T00830067
cycle: 13

Station Type Date Time Source
KOAK TAF 2020/01/29 12:30 UTC NOAA

TAF KOAK 291128Z 2912/3018 07004KT P6SM SCT025 BKN250
FM292000 29012KT P6SM FEW030 BKN250
FM300300 29008KT P6SM FEW030 SCT250
FM300800 29004KT P6SM FEW020 SCT250

Example: see airport list